Terminal Aerodrome Forecast
Issued by NWS Tampa Bay Area, FL

Home | Current Version | Previous Version | Text Only | Print | Product List | Glossary On
Versions: 1 2 3 4 5 6 7 8 9 10 11 12 13 14 15
000
FTUS42 KTBW 261120
TAFSRQ
TAF
KSRQ 261120Z 2612/2712 10004KT P6SM FEW020 BKN250
     FM261400 11005KT P6SM FEW025 BKN250
     FM261700 25007KT P6SM SCT035 BKN250
     FM261900 27009KT P6SM VCTS SCT040CB SCT100 BKN250
     FM262300 VRB05KT P6SM VCTS SCT040CB BKN100
     FM270200 VRB03KT P6SM FEW040 SCT100 BKN250=

USA.gov is the U.S. government's official web portal to all federal, state and local government web resources and services.